sensor_id;sensor_type;location;lat;lon;timestamp;temperature;humidity
52523;DHT22;39648;53.416;6.728;2022-07-03T00:01:08;25.50;60.10
52523;DHT22;39648;53.416;6.728;2022-07-03T00:03:34;25.50;60.10
52523;DHT22;39648;53.416;6.728;2022-07-03T00:06:00;25.50;60.10
52523;DHT22;39648;53.416;6.728;2022-07-03T00:08:25;25.50;60.10
52523;DHT22;39648;53.416;6.728;2022-07-03T00:10:51;25.50;60.10
52523;DHT22;39648;53.416;6.728;2022-07-03T00:13:17;25.50;60.10
52523;DHT22;39648;53.416;6.728;2022-07-03T00:15:42;25.50;60.20
52523;DHT22;39648;53.416;6.728;2022-07-03T00:18:09;26.00;60.50
52523;DHT22;39648;53.416;6.728;2022-07-03T00:20:36;25.50;60.10
52523;DHT22;39648;53.416;6.728;2022-07-03T00:23:04;25.50;60.20
52523;DHT22;39648;53.416;6.728;2022-07-03T00:25:33;25.50;60.20
52523;DHT22;39648;53.416;6.728;2022-07-03T00:28:00;25.50;60.10
52523;DHT22;39648;53.416;6.728;2022-07-03T00:30:26;25.50;60.10
52523;DHT22;39648;53.416;6.728;2022-07-03T00:32:52;25.50;60.10
52523;DHT22;39648;53.416;6.728;2022-07-03T00:35:19;25.50;60.10
52523;DHT22;39648;53.416;6.728;2022-07-03T00:37:45;25.50;60.20
52523;DHT22;39648;53.416;6.728;2022-07-03T00:40:11;25.50;60.20
52523;DHT22;39648;53.416;6.728;2022-07-03T00:42:37;25.50;60.20
52523;DHT22;39648;53.416;6.728;2022-07-03T00:45:06;25.50;60.20
52523;DHT22;39648;53.416;6.728;2022-07-03T00:47:34;25.50;60.20
52523;DHT22;39648;53.416;6.728;2022-07-03T00:50:00;25.50;60.20
52523;DHT22;39648;53.416;6.728;2022-07-03T00:52:30;25.50;60.20
52523;DHT22;39648;53.416;6.728;2022-07-03T00:54:57;25.50;60.20
52523;DHT22;39648;53.416;6.728;2022-07-03T00:57:24;25.40;60.10
52523;DHT22;39648;53.416;6.728;2022-07-03T00:59:50;25.40;60.10
52523;DHT22;39648;53.416;6.728;2022-07-03T01:04:59;25.40;60.20
52523;DHT22;39648;53.416;6.728;2022-07-03T01:07:46;25.40;60.10
52523;DHT22;39648;53.416;6.728;2022-07-03T01:15:12;25.40;60.20
52523;DHT22;39648;53.416;6.728;2022-07-03T01:17:43;25.40;60.20
52523;DHT22;39648;53.416;6.728;2022-07-03T01:20:12;25.40;60.20
52523;DHT22;39648;53.416;6.728;2022-07-03T01:22:43;25.40;60.20
52523;DHT22;39648;53.416;6.728;2022-07-03T01:25:36;25.30;60.10
52523;DHT22;39648;53.416;6.728;2022-07-03T01:30:30;25.30;60.10
52523;DHT22;39648;53.416;6.728;2022-07-03T01:32:57;26.10;60.70
52523;DHT22;39648;53.416;6.728;2022-07-03T01:35:26;25.40;60.20
52523;DHT22;39648;53.416;6.728;2022-07-03T01:37:52;25.30;60.20
52523;DHT22;39648;53.416;6.728;2022-07-03T01:40:19;25.30;60.20
52523;DHT22;39648;53.416;6.728;2022-07-03T01:42:47;25.30;60.20
52523;DHT22;39648;53.416;6.728;2022-07-03T01:45:14;25.30;60.20
52523;DHT22;39648;53.416;6.728;2022-07-03T01:47:42;25.30;60.20
52523;DHT22;39648;53.416;6.728;2022-07-03T01:50:10;25.30;60.20
52523;DHT22;39648;53.416;6.728;2022-07-03T01:52:37;25.30;60.20
52523;DHT22;39648;53.416;6.728;2022-07-03T01:55:05;25.30;60.20
52523;DHT22;39648;53.416;6.728;2022-07-03T01:57:37;25.30;60.20
52523;DHT22;39648;53.416;6.728;2022-07-03T02:00:05;25.30;60.20
52523;DHT22;39648;53.416;6.728;2022-07-03T02:02:32;25.30;60.20
52523;DHT22;39648;53.416;6.728;2022-07-03T02:05:02;25.30;60.20
52523;DHT22;39648;53.416;6.728;2022-07-03T02:07:33;25.30;60.20
52523;DHT22;39648;53.416;6.728;2022-07-03T02:12:29;25.20;60.20
52523;DHT22;39648;53.416;6.728;2022-07-03T02:15:02;25.20;60.20
52523;DHT22;39648;53.416;6.728;2022-07-03T02:17:29;25.20;60.20
52523;DHT22;39648;53.416;6.728;2022-07-03T02:20:02;25.20;60.20
52523;DHT22;39648;53.416;6.728;2022-07-03T02:22:34;25.20;60.20
52523;DHT22;39648;53.416;6.728;2022-07-03T02:25:03;25.20;60.20
52523;DHT22;39648;53.416;6.728;2022-07-03T02:27:31;25.20;60.20
52523;DHT22;39648;53.416;6.728;2022-07-03T02:30:00;25.20;60.20
52523;DHT22;39648;53.416;6.728;2022-07-03T02:32:28;25.20;60.20
52523;DHT22;39648;53.416;6.728;2022-07-03T02:34:58;25.20;60.20
52523;DHT22;39648;53.416;6.728;2022-07-03T02:37:27;25.20;60.20
52523;DHT22;39648;53.416;6.728;2022-07-03T02:40:03;25.20;60.20
52523;DHT22;39648;53.416;6.728;2022-07-03T02:42:32;25.20;60.20
52523;DHT22;39648;53.416;6.728;2022-07-03T02:45:01;25.20;60.20
52523;DHT22;39648;53.416;6.728;2022-07-03T02:47:37;25.20;60.20
52523;DHT22;39648;53.416;6.728;2022-07-03T02:50:10;25.20;60.20
52523;DHT22;39648;53.416;6.728;2022-07-03T02:55:21;25.20;60.20
52523;DHT22;39648;53.416;6.728;2022-07-03T02:57:59;25.10;60.20
52523;DHT22;39648;53.416;6.728;2022-07-03T03:00:25;25.20;60.30
52523;DHT22;39648;53.416;6.728;2022-07-03T03:02:52;25.10;60.20
52523;DHT22;39648;53.416;6.728;2022-07-03T03:07:48;25.10;60.20
52523;DHT22;39648;53.416;6.728;2022-07-03T03:10:16;25.10;60.20
52523;DHT22;39648;53.416;6.728;2022-07-03T03:12:43;25.10;60.20
52523;DHT22;39648;53.416;6.728;2022-07-03T03:15:11;25.10;60.20
52523;DHT22;39648;53.416;6.728;2022-07-03T03:17:42;25.10;60.30
52523;DHT22;39648;53.416;6.728;2022-07-03T03:20:08;25.10;60.20
52523;DHT22;39648;53.416;6.728;2022-07-03T03:22:46;25.10;60.90
52523;DHT22;39648;53.416;6.728;2022-07-03T03:25:17;25.10;60.30
52523;DHT22;39648;53.416;6.728;2022-07-03T03:27:42;25.00;60.20
52523;DHT22;39648;53.416;6.728;2022-07-03T03:30:08;25.10;60.30
52523;DHT22;39648;53.416;6.728;2022-07-03T03:32:34;25.10;60.30
52523;DHT22;39648;53.416;6.728;2022-07-03T03:35:01;25.10;60.30
52523;DHT22;39648;53.416;6.728;2022-07-03T03:37:26;25.00;60.20
52523;DHT22;39648;53.416;6.728;2022-07-03T03:39:52;25.00;60.20
52523;DHT22;39648;53.416;6.728;2022-07-03T03:42:18;25.00;60.20
52523;DHT22;39648;53.416;6.728;2022-07-03T03:44:44;25.00;60.20
52523;DHT22;39648;53.416;6.728;2022-07-03T03:47:09;25.00;60.20
52523;DHT22;39648;53.416;6.728;2022-07-03T03:49:35;25.00;60.20
52523;DHT22;39648;53.416;6.728;2022-07-03T03:52:02;25.00;60.20
52523;DHT22;39648;53.416;6.728;2022-07-03T03:54:27;25.00;60.20
52523;DHT22;39648;53.416;6.728;2022-07-03T03:56:53;25.00;60.20
52523;DHT22;39648;53.416;6.728;2022-07-03T03:59:19;24.90;60.20
52523;DHT22;39648;53.416;6.728;2022-07-03T04:01:45;24.90;60.20
52523;DHT22;39648;53.416;6.728;2022-07-03T04:04:11;25.00;60.20
52523;DHT22;39648;53.416;6.728;2022-07-03T04:06:37;25.00;60.20
52523;DHT22;39648;53.416;6.728;2022-07-03T04:09:03;25.00;60.20
52523;DHT22;39648;53.416;6.728;2022-07-03T04:11:29;24.90;60.20
52523;DHT22;39648;53.416;6.728;2022-07-03T04:13:56;24.90;60.10
52523;DHT22;39648;53.416;6.728;2022-07-03T04:16:22;24.90;60.20
52523;DHT22;39648;53.416;6.728;2022-07-03T04:18:47;24.90;60.20
52523;DHT22;39648;53.416;6.728;2022-07-03T04:21:13;24.90;60.20
52523;DHT22;39648;53.416;6.728;2022-07-03T04:23:39;24.90;60.20
52523;DHT22;39648;53.416;6.728;2022-07-03T04:26:05;24.90;60.10
52523;DHT22;39648;53.416;6.728;2022-07-03T04:28:31;24.90;60.10
52523;DHT22;39648;53.416;6.728;2022-07-03T04:30:57;24.90;60.10
52523;DHT22;39648;53.416;6.728;2022-07-03T04:33:23;24.90;60.20
52523;DHT22;39648;53.416;6.728;2022-07-03T04:35:48;24.90;60.20
52523;DHT22;39648;53.416;6.728;2022-07-03T04:38:14;24.90;60.10
52523;DHT22;39648;53.416;6.728;2022-07-03T04:40:40;24.90;60.10
52523;DHT22;39648;53.416;6.728;2022-07-03T04:43:05;24.90;60.10
52523;DHT22;39648;53.416;6.728;2022-07-03T04:45:31;24.90;60.10
52523;DHT22;39648;53.416;6.728;2022-07-03T04:47:57;24.90;60.10
52523;DHT22;39648;53.416;6.728;2022-07-03T04:50:22;24.90;60.10
52523;DHT22;39648;53.416;6.728;2022-07-03T04:52:48;24.90;60.10
52523;DHT22;39648;53.416;6.728;2022-07-03T04:55:14;24.90;60.10
52523;DHT22;39648;53.416;6.728;2022-07-03T04:57:39;24.90;60.10
52523;DHT22;39648;53.416;6.728;2022-07-03T05:00:06;24.90;60.10
52523;DHT22;39648;53.416;6.728;2022-07-03T05:02:32;24.90;60.10
52523;DHT22;39648;53.416;6.728;2022-07-03T05:04:57;24.90;60.40
52523;DHT22;39648;53.416;6.728;2022-07-03T05:07:23;24.90;60.10
52523;DHT22;39648;53.416;6.728;2022-07-03T05:09:49;24.90;60.10
52523;DHT22;39648;53.416;6.728;2022-07-03T05:12:14;24.10;59.70
52523;DHT22;39648;53.416;6.728;2022-07-03T05:14:40;24.90;60.20
52523;DHT22;39648;53.416;6.728;2022-07-03T05:17:06;24.90;60.10
52523;DHT22;39648;53.416;6.728;2022-07-03T05:19:31;24.90;60.10
52523;DHT22;39648;53.416;6.728;2022-07-03T05:21:57;24.90;60.10
52523;DHT22;39648;53.416;6.728;2022-07-03T05:24:23;24.90;60.20
52523;DHT22;39648;53.416;6.728;2022-07-03T05:26:49;24.90;60.20
52523;DHT22;39648;53.416;6.728;2022-07-03T05:29:15;24.90;60.10
52523;DHT22;39648;53.416;6.728;2022-07-03T05:31:41;24.90;60.10
52523;DHT22;39648;53.416;6.728;2022-07-03T05:34:07;24.90;60.80
52523;DHT22;39648;53.416;6.728;2022-07-03T05:36:33;24.90;60.10
52523;DHT22;39648;53.416;6.728;2022-07-03T05:38:59;24.90;60.20
52523;DHT22;39648;53.416;6.728;2022-07-03T05:41:43;24.90;60.20
52523;DHT22;39648;53.416;6.728;2022-07-03T05:44:09;24.90;60.20
52523;DHT22;39648;53.416;6.728;2022-07-03T05:46:34;24.90;60.20
52523;DHT22;39648;53.416;6.728;2022-07-03T05:49:00;24.90;60.20
52523;DHT22;39648;53.416;6.728;2022-07-03T05:51:26;24.90;60.20
52523;DHT22;39648;53.416;6.728;2022-07-03T05:53:52;24.90;60.20
52523;DHT22;39648;53.416;6.728;2022-07-03T05:56:17;24.90;60.20
52523;DHT22;39648;53.416;6.728;2022-07-03T05:58:43;24.90;60.20
52523;DHT22;39648;53.416;6.728;2022-07-03T06:01:09;24.90;60.20
52523;DHT22;39648;53.416;6.728;2022-07-03T06:03:35;24.90;60.20
52523;DHT22;39648;53.416;6.728;2022-07-03T06:06:01;24.90;60.20
52523;DHT22;39648;53.416;6.728;2022-07-03T06:08:27;24.90;60.20
52523;DHT22;39648;53.416;6.728;2022-07-03T06:10:52;24.90;60.20
52523;DHT22;39648;53.416;6.728;2022-07-03T06:13:18;24.90;60.20
52523;DHT22;39648;53.416;6.728;2022-07-03T06:15:44;24.90;60.20
52523;DHT22;39648;53.416;6.728;2022-07-03T06:18:09;24.90;60.20
52523;DHT22;39648;53.416;6.728;2022-07-03T06:20:35;24.90;60.20
52523;DHT22;39648;53.416;6.728;2022-07-03T06:23:01;24.90;60.20
52523;DHT22;39648;53.416;6.728;2022-07-03T06:25:27;24.90;60.20
52523;DHT22;39648;53.416;6.728;2022-07-03T06:27:53;24.90;60.20
52523;DHT22;39648;53.416;6.728;2022-07-03T06:30:19;24.90;60.20
52523;DHT22;39648;53.416;6.728;2022-07-03T06:32:44;24.90;60.20
52523;DHT22;39648;53.416;6.728;2022-07-03T06:35:10;24.90;60.20
52523;DHT22;39648;53.416;6.728;2022-07-03T06:37:36;24.90;60.30
52523;DHT22;39648;53.416;6.728;2022-07-03T06:40:02;24.90;60.20
52523;DHT22;39648;53.416;6.728;2022-07-03T06:42:27;24.90;60.30
52523;DHT22;39648;53.416;6.728;2022-07-03T06:44:53;24.90;60.20
52523;DHT22;39648;53.416;6.728;2022-07-03T06:47:19;24.90;60.30
52523;DHT22;39648;53.416;6.728;2022-07-03T06:49:45;24.90;60.30
52523;DHT22;39648;53.416;6.728;2022-07-03T06:52:10;24.90;60.30
52523;DHT22;39648;53.416;6.728;2022-07-03T06:54:37;24.90;60.30
52523;DHT22;39648;53.416;6.728;2022-07-03T06:57:06;24.90;60.30
52523;DHT22;39648;53.416;6.728;2022-07-03T06:59:32;24.90;60.30
52523;DHT22;39648;53.416;6.728;2022-07-03T07:01:58;24.90;60.20
52523;DHT22;39648;53.416;6.728;2022-07-03T07:04:23;24.90;60.30
52523;DHT22;39648;53.416;6.728;2022-07-03T07:06:49;24.90;60.30
52523;DHT22;39648;53.416;6.728;2022-07-03T07:09:15;24.90;60.30
52523;DHT22;39648;53.416;6.728;2022-07-03T07:11:40;24.90;60.30
52523;DHT22;39648;53.416;6.728;2022-07-03T07:14:06;24.90;60.30
52523;DHT22;39648;53.416;6.728;2022-07-03T07:16:32;24.90;60.30
52523;DHT22;39648;53.416;6.728;2022-07-03T07:18:57;24.90;60.30
52523;DHT22;39648;53.416;6.728;2022-07-03T07:21:23;24.90;60.30
52523;DHT22;39648;53.416;6.728;2022-07-03T07:23:49;24.90;60.30
52523;DHT22;39648;53.416;6.728;2022-07-03T07:26:14;24.90;60.40
52523;DHT22;39648;53.416;6.728;2022-07-03T07:28:40;24.90;60.30
52523;DHT22;39648;53.416;6.728;2022-07-03T07:31:05;24.90;60.30
52523;DHT22;39648;53.416;6.728;2022-07-03T07:33:31;24.90;60.40
52523;DHT22;39648;53.416;6.728;2022-07-03T07:35:57;24.90;60.30
52523;DHT22;39648;53.416;6.728;2022-07-03T07:38:22;24.90;60.40
52523;DHT22;39648;53.416;6.728;2022-07-03T07:40:48;24.90;60.30
52523;DHT22;39648;53.416;6.728;2022-07-03T07:43:14;24.90;60.30
52523;DHT22;39648;53.416;6.728;2022-07-03T07:45:40;24.90;60.40
52523;DHT22;39648;53.416;6.728;2022-07-03T07:48:05;24.90;60.40
52523;DHT22;39648;53.416;6.728;2022-07-03T07:50:31;24.90;60.40
52523;DHT22;39648;53.416;6.728;2022-07-03T07:52:57;24.00;60.00
52523;DHT22;39648;53.416;6.728;2022-07-03T07:55:22;24.90;60.40
52523;DHT22;39648;53.416;6.728;2022-07-03T07:57:48;24.90;60.40
52523;DHT22;39648;53.416;6.728;2022-07-03T08:00:15;24.90;60.40
52523;DHT22;39648;53.416;6.728;2022-07-03T08:02:41;24.90;60.40
52523;DHT22;39648;53.416;6.728;2022-07-03T08:05:26;24.90;60.40
52523;DHT22;39648;53.416;6.728;2022-07-03T08:08:01;24.90;60.40
52523;DHT22;39648;53.416;6.728;2022-07-03T08:10:27;24.90;60.40
52523;DHT22;39648;53.416;6.728;2022-07-03T08:12:53;24.90;60.50
52523;DHT22;39648;53.416;6.728;2022-07-03T08:15:18;24.90;60.40
52523;DHT22;39648;53.416;6.728;2022-07-03T08:17:44;24.90;60.50
52523;DHT22;39648;53.416;6.728;2022-07-03T08:20:10;24.90;60.50
52523;DHT22;39648;53.416;6.728;2022-07-03T08:22:36;24.90;60.50
52523;DHT22;39648;53.416;6.728;2022-07-03T08:25:02;25.00;60.50
52523;DHT22;39648;53.416;6.728;2022-07-03T08:27:27;25.00;60.50
52523;DHT22;39648;53.416;6.728;2022-07-03T08:29:53;24.60;60.30
52523;DHT22;39648;53.416;6.728;2022-07-03T08:32:19;25.00;60.50
52523;DHT22;39648;53.416;6.728;2022-07-03T08:34:44;25.00;60.50
52523;DHT22;39648;53.416;6.728;2022-07-03T08:37:10;25.00;60.50
52523;DHT22;39648;53.416;6.728;2022-07-03T08:39:36;25.00;60.50
52523;DHT22;39648;53.416;6.728;2022-07-03T08:42:01;25.00;60.50
52523;DHT22;39648;53.416;6.728;2022-07-03T08:44:27;25.00;60.40
52523;DHT22;39648;53.416;6.728;2022-07-03T08:46:55;25.00;60.50
52523;DHT22;39648;53.416;6.728;2022-07-03T08:49:21;25.00;60.50
52523;DHT22;39648;53.416;6.728;2022-07-03T08:51:47;25.10;60.50
52523;DHT22;39648;53.416;6.728;2022-07-03T08:54:14;25.10;60.50
52523;DHT22;39648;53.416;6.728;2022-07-03T08:56:40;25.10;60.50
52523;DHT22;39648;53.416;6.728;2022-07-03T08:59:06;25.10;60.50
52523;DHT22;39648;53.416;6.728;2022-07-03T09:01:33;25.10;60.50
52523;DHT22;39648;53.416;6.728;2022-07-03T09:04:00;25.10;60.50
52523;DHT22;39648;53.416;6.728;2022-07-03T09:06:26;25.10;60.50
52523;DHT22;39648;53.416;6.728;2022-07-03T09:09:00;25.10;60.50
52523;DHT22;39648;53.416;6.728;2022-07-03T09:11:26;25.10;60.50
52523;DHT22;39648;53.416;6.728;2022-07-03T09:13:52;25.20;60.60
52523;DHT22;39648;53.416;6.728;2022-07-03T09:16:18;25.20;60.50
52523;DHT22;39648;53.416;6.728;2022-07-03T09:18:44;25.10;60.40
52523;DHT22;39648;53.416;6.728;2022-07-03T09:21:10;25.20;60.50
52523;DHT22;39648;53.416;6.728;2022-07-03T09:23:37;25.10;60.50
52523;DHT22;39648;53.416;6.728;2022-07-03T09:26:04;25.20;60.50
52523;DHT22;39648;53.416;6.728;2022-07-03T09:28:46;25.20;60.50
52523;DHT22;39648;53.416;6.728;2022-07-03T09:31:15;25.20;60.50
52523;DHT22;39648;53.416;6.728;2022-07-03T09:33:50;25.20;60.50
52523;DHT22;39648;53.416;6.728;2022-07-03T09:36:16;25.20;60.50
52523;DHT22;39648;53.416;6.728;2022-07-03T09:38:43;25.20;60.50
52523;DHT22;39648;53.416;6.728;2022-07-03T09:41:10;25.20;60.50
52523;DHT22;39648;53.416;6.728;2022-07-03T09:43:36;25.20;60.50
52523;DHT22;39648;53.416;6.728;2022-07-03T09:46:06;25.20;60.40
52523;DHT22;39648;53.416;6.728;2022-07-03T09:48:32;25.30;60.50
52523;DHT22;39648;53.416;6.728;2022-07-03T09:53:50;25.30;60.50
52523;DHT22;39648;53.416;6.728;2022-07-03T09:56:17;25.20;60.50
52523;DHT22;39648;53.416;6.728;2022-07-03T10:01:27;25.20;60.40
52523;DHT22;39648;53.416;6.728;2022-07-03T10:03:53;25.30;60.50
52523;DHT22;39648;53.416;6.728;2022-07-03T10:06:19;25.30;60.50
52523;DHT22;39648;53.416;6.728;2022-07-03T10:08:45;25.30;60.50
52523;DHT22;39648;53.416;6.728;2022-07-03T10:11:11;25.30;60.50
52523;DHT22;39648;53.416;6.728;2022-07-03T10:13:37;25.30;60.50
52523;DHT22;39648;53.416;6.728;2022-07-03T10:16:05;25.30;60.40
52523;DHT22;39648;53.416;6.728;2022-07-03T10:18:31;25.30;60.40
52523;DHT22;39648;53.416;6.728;2022-07-03T10:20:57;25.30;60.40
52523;DHT22;39648;53.416;6.728;2022-07-03T10:23:24;25.40;60.50
52523;DHT22;39648;53.416;6.728;2022-07-03T10:25:52;25.40;60.50
52523;DHT22;39648;53.416;6.728;2022-07-03T10:28:18;25.40;60.50
52523;DHT22;39648;53.416;6.728;2022-07-03T10:30:44;25.40;60.50
52523;DHT22;39648;53.416;6.728;2022-07-03T10:33:10;25.40;60.50
52523;DHT22;39648;53.416;6.728;2022-07-03T10:35:37;25.40;60.50
52523;DHT22;39648;53.416;6.728;2022-07-03T10:40:41;25.40;60.50
52523;DHT22;39648;53.416;6.728;2022-07-03T10:43:26;25.40;60.50
52523;DHT22;39648;53.416;6.728;2022-07-03T10:46:12;25.40;60.50
52523;DHT22;39648;53.416;6.728;2022-07-03T10:48:49;25.50;61.10
52523;DHT22;39648;53.416;6.728;2022-07-03T10:51:15;25.50;60.50
52523;DHT22;39648;53.416;6.728;2022-07-03T10:53:41;25.50;61.10
52523;DHT22;39648;53.416;6.728;2022-07-03T10:56:06;25.40;60.40
52523;DHT22;39648;53.416;6.728;2022-07-03T10:58:32;25.50;60.50
52523;DHT22;39648;53.416;6.728;2022-07-03T11:01:25;25.50;60.50
52523;DHT22;39648;53.416;6.728;2022-07-03T11:03:52;25.50;60.50
52523;DHT22;39648;53.416;6.728;2022-07-03T11:06:29;25.50;60.50
52523;DHT22;39648;53.416;6.728;2022-07-03T11:09:08;25.50;60.50
52523;DHT22;39648;53.416;6.728;2022-07-03T11:11:39;25.50;60.50
52523;DHT22;39648;53.416;6.728;2022-07-03T11:14:21;25.50;60.50
52523;DHT22;39648;53.416;6.728;2022-07-03T11:16:47;25.50;60.50
52523;DHT22;39648;53.416;6.728;2022-07-03T11:19:13;25.50;60.50
52523;DHT22;39648;53.416;6.728;2022-07-03T11:21:41;25.50;60.50
52523;DHT22;39648;53.416;6.728;2022-07-03T11:24:18;25.50;60.50
52523;DHT22;39648;53.416;6.728;2022-07-03T11:26:46;25.50;60.50
52523;DHT22;39648;53.416;6.728;2022-07-03T11:29:36;25.50;60.50
52523;DHT22;39648;53.416;6.728;2022-07-03T11:34:47;25.60;60.50
52523;DHT22;39648;53.416;6.728;2022-07-03T11:37:19;25.60;60.50
52523;DHT22;39648;53.416;6.728;2022-07-03T11:39:45;25.60;60.50
52523;DHT22;39648;53.416;6.728;2022-07-03T11:42:13;25.60;60.50
52523;DHT22;39648;53.416;6.728;2022-07-03T11:44:39;25.60;60.50
52523;DHT22;39648;53.416;6.728;2022-07-03T11:47:04;25.60;60.50
52523;DHT22;39648;53.416;6.728;2022-07-03T11:49:30;25.60;60.60
52523;DHT22;39648;53.416;6.728;2022-07-03T11:54:24;25.60;60.60
52523;DHT22;39648;53.416;6.728;2022-07-03T11:56:50;25.60;60.60
52523;DHT22;39648;53.416;6.728;2022-07-03T11:59:16;25.70;60.60
52523;DHT22;39648;53.416;6.728;2022-07-03T12:01:42;25.70;60.60
52523;DHT22;39648;53.416;6.728;2022-07-03T12:04:09;25.70;60.60
52523;DHT22;39648;53.416;6.728;2022-07-03T12:06:36;25.70;60.60
52523;DHT22;39648;53.416;6.728;2022-07-03T12:09:03;25.70;60.60
52523;DHT22;39648;53.416;6.728;2022-07-03T12:11:28;25.70;60.60
52523;DHT22;39648;53.416;6.728;2022-07-03T12:13:54;25.70;60.70
52523;DHT22;39648;53.416;6.728;2022-07-03T12:16:21;25.70;60.60
52523;DHT22;39648;53.416;6.728;2022-07-03T12:18:56;25.70;60.60
52523;DHT22;39648;53.416;6.728;2022-07-03T12:21:31;25.70;60.70
52523;DHT22;39648;53.416;6.728;2022-07-03T12:24:00;25.70;60.60
52523;DHT22;39648;53.416;6.728;2022-07-03T12:26:27;25.70;60.70
52523;DHT22;39648;53.416;6.728;2022-07-03T12:28:54;25.70;60.70
52523;DHT22;39648;53.416;6.728;2022-07-03T12:31:20;25.70;60.60
52523;DHT22;39648;53.416;6.728;2022-07-03T12:33:46;25.70;60.70
52523;DHT22;39648;53.416;6.728;2022-07-03T12:36:12;25.70;60.60
52523;DHT22;39648;53.416;6.728;2022-07-03T12:38:38;25.70;60.60
52523;DHT22;39648;53.416;6.728;2022-07-03T12:41:06;25.70;60.60
52523;DHT22;39648;53.416;6.728;2022-07-03T12:43:38;25.70;60.60
52523;DHT22;39648;53.416;6.728;2022-07-03T12:46:34;25.70;60.60
52523;DHT22;39648;53.416;6.728;2022-07-03T12:49:00;25.70;60.60
52523;DHT22;39648;53.416;6.728;2022-07-03T12:51:36;25.80;60.70
52523;DHT22;39648;53.416;6.728;2022-07-03T12:54:03;25.80;60.70
52523;DHT22;39648;53.416;6.728;2022-07-03T12:56:29;25.80;60.70
52523;DHT22;39648;53.416;6.728;2022-07-03T12:58:55;25.80;60.70
52523;DHT22;39648;53.416;6.728;2022-07-03T13:01:39;25.80;60.70
52523;DHT22;39648;53.416;6.728;2022-07-03T13:04:05;25.80;60.70
52523;DHT22;39648;53.416;6.728;2022-07-03T13:06:33;25.80;60.70
52523;DHT22;39648;53.416;6.728;2022-07-03T13:09:00;25.80;60.70
52523;DHT22;39648;53.416;6.728;2022-07-03T13:11:27;25.80;60.70
52523;DHT22;39648;53.416;6.728;2022-07-03T13:13:53;25.80;60.70
52523;DHT22;39648;53.416;6.728;2022-07-03T13:16:22;25.80;60.70
52523;DHT22;39648;53.416;6.728;2022-07-03T13:18:58;25.80;60.70
52523;DHT22;39648;53.416;6.728;2022-07-03T13:21:24;25.90;60.80
52523;DHT22;39648;53.416;6.728;2022-07-03T13:23:51;25.90;60.70
52523;DHT22;39648;53.416;6.728;2022-07-03T13:26:17;25.90;60.80
52523;DHT22;39648;53.416;6.728;2022-07-03T13:28:43;25.90;60.70
52523;DHT22;39648;53.416;6.728;2022-07-03T13:31:09;25.90;60.70
52523;DHT22;39648;53.416;6.728;2022-07-03T13:33:36;25.90;60.70
52523;DHT22;39648;53.416;6.728;2022-07-03T13:36:02;25.90;60.70
52523;DHT22;39648;53.416;6.728;2022-07-03T13:38:27;25.90;60.70
52523;DHT22;39648;53.416;6.728;2022-07-03T13:40:53;25.90;60.70
52523;DHT22;39648;53.416;6.728;2022-07-03T13:43:19;25.90;60.70
52523;DHT22;39648;53.416;6.728;2022-07-03T13:45:44;25.90;60.70
52523;DHT22;39648;53.416;6.728;2022-07-03T13:48:10;25.90;60.70
52523;DHT22;39648;53.416;6.728;2022-07-03T13:50:36;26.10;60.90
52523;DHT22;39648;53.416;6.728;2022-07-03T13:53:02;25.90;60.70
52523;DHT22;39648;53.416;6.728;2022-07-03T13:55:28;25.90;60.70
52523;DHT22;39648;53.416;6.728;2022-07-03T13:57:54;25.90;60.70
52523;DHT22;39648;53.416;6.728;2022-07-03T14:00:20;25.90;60.70
52523;DHT22;39648;53.416;6.728;2022-07-03T14:02:45;25.90;60.70
52523;DHT22;39648;53.416;6.728;2022-07-03T14:05:11;26.00;60.80
52523;DHT22;39648;53.416;6.728;2022-07-03T14:07:37;26.00;60.80
52523;DHT22;39648;53.416;6.728;2022-07-03T14:10:03;26.00;60.80
52523;DHT22;39648;53.416;6.728;2022-07-03T14:12:28;26.00;60.70
52523;DHT22;39648;53.416;6.728;2022-07-03T14:14:54;26.00;60.80
52523;DHT22;39648;53.416;6.728;2022-07-03T14:17:22;26.00;60.80
52523;DHT22;39648;53.416;6.728;2022-07-03T14:19:47;26.00;60.70
52523;DHT22;39648;53.416;6.728;2022-07-03T14:22:14;26.00;60.70
52523;DHT22;39648;53.416;6.728;2022-07-03T14:24:39;26.00;60.70
52523;DHT22;39648;53.416;6.728;2022-07-03T14:27:05;26.00;60.70
52523;DHT22;39648;53.416;6.728;2022-07-03T14:29:49;26.00;60.70
52523;DHT22;39648;53.416;6.728;2022-07-03T14:32:34;26.00;60.70
52523;DHT22;39648;53.416;6.728;2022-07-03T14:35:00;26.00;60.70
52523;DHT22;39648;53.416;6.728;2022-07-03T14:37:26;26.00;60.70
52523;DHT22;39648;53.416;6.728;2022-07-03T14:39:53;26.00;60.70
52523;DHT22;39648;53.416;6.728;2022-07-03T14:42:19;26.00;60.70
52523;DHT22;39648;53.416;6.728;2022-07-03T14:44:46;26.00;60.70
52523;DHT22;39648;53.416;6.728;2022-07-03T14:47:12;26.00;60.70
52523;DHT22;39648;53.416;6.728;2022-07-03T14:49:38;26.00;60.70
52523;DHT22;39648;53.416;6.728;2022-07-03T14:52:04;26.00;60.70
52523;DHT22;39648;53.416;6.728;2022-07-03T14:54:30;26.00;60.70
52523;DHT22;39648;53.416;6.728;2022-07-03T14:56:57;26.00;60.70
52523;DHT22;39648;53.416;6.728;2022-07-03T15:01:56;26.00;60.70
52523;DHT22;39648;53.416;6.728;2022-07-03T15:04:34;26.10;60.80
52523;DHT22;39648;53.416;6.728;2022-07-03T15:07:05;26.10;60.70
52523;DHT22;39648;53.416;6.728;2022-07-03T15:09:32;26.10;60.70
52523;DHT22;39648;53.416;6.728;2022-07-03T15:11:59;26.00;60.70
52523;DHT22;39648;53.416;6.728;2022-07-03T15:14:44;26.00;60.70
52523;DHT22;39648;53.416;6.728;2022-07-03T15:17:11;26.10;60.70
52523;DHT22;39648;53.416;6.728;2022-07-03T15:19:37;26.10;60.70
52523;DHT22;39648;53.416;6.728;2022-07-03T15:22:03;26.10;60.70
52523;DHT22;39648;53.416;6.728;2022-07-03T15:24:30;26.00;60.70
52523;DHT22;39648;53.416;6.728;2022-07-03T15:26:56;26.00;60.70
52523;DHT22;39648;53.416;6.728;2022-07-03T15:29:21;26.10;60.70
52523;DHT22;39648;53.416;6.728;2022-07-03T15:31:47;26.10;60.70
52523;DHT22;39648;53.416;6.728;2022-07-03T15:34:13;26.00;60.60
52523;DHT22;39648;53.416;6.728;2022-07-03T15:36:44;26.00;60.70
52523;DHT22;39648;53.416;6.728;2022-07-03T15:39:13;26.00;60.70
52523;DHT22;39648;53.416;6.728;2022-07-03T15:41:48;26.10;60.70
52523;DHT22;39648;53.416;6.728;2022-07-03T15:44:20;26.10;60.70
52523;DHT22;39648;53.416;6.728;2022-07-03T15:54:22;26.10;60.70
52523;DHT22;39648;53.416;6.728;2022-07-03T15:56:49;26.10;60.70
52523;DHT22;39648;53.416;6.728;2022-07-03T15:59:16;26.00;60.70
52523;DHT22;39648;53.416;6.728;2022-07-03T16:01:47;26.00;60.60
52523;DHT22;39648;53.416;6.728;2022-07-03T16:07:06;26.10;60.70
52523;DHT22;39648;53.416;6.728;2022-07-03T16:09:33;26.00;60.60
52523;DHT22;39648;53.416;6.728;2022-07-03T16:11:59;26.10;60.70
52523;DHT22;39648;53.416;6.728;2022-07-03T16:14:27;26.10;60.70
52523;DHT22;39648;53.416;6.728;2022-07-03T16:16:56;26.10;61.30